Menus déroulants Compteur de la base de données HP du site Dôme acoustique, la conception des enceintes acoustiques : 4 213 086 --- Nombre recherches en cours : 16

image121-4.jpg


Base de données : Les 50 derniers HP entrés ou modifiés

Mise à jour : 29 ortobre 2017


Le choix des données affichées est volontairement limité au strict nécessaire pour commencer à sélectionner un haut-parleur : Fs, VAS et Qts.

En bas de ce chapitre vous avez les sélections a effectuer pour voir les paramètres THIELE et SMALL et les domaines d'utilisation du haut-parleur que vous choisirez.'


Liste des 50 derniers haut-parleurs entrés ou modifiés de la base :

Le dernier HP entré ou modifié est en début de tableau : Ordre inverse.
HP qui vient d'être entré : Date de création = date de modification.
HP qui vient d'être modifié : Date de création < date de modification. La date de création est en orange.
Sauf dans le cas d'une erreur flagrante, la modification ne concerne que la case "Avis" qui passe d'une valeur non renseignée, 0, à une autre valeur.

Choix
HP
Marque Référence Avis Diam
cm
Type Type
calculé
Impédance
normalisée
Fs
Hz
VAS
L
Qts Date de
création
Date de
modification
LAVOCE CSF061.21 1 17 COAX G 8 Ohms 84.00 9.50 0.626 2019-06-24 2019-06-24
PEERLESS SLS-85S25CP04-08 1 8 --- BM 8 Ohms 73.74 1.48 0.404 2019-06-19 2019-06-19
PEERLESS BC11WG59-04 1 10 --- BM 4 Ohms 64.60 4.99 0.390 2019-06-19 2019-06-19
ATOHM LD230CRA04 1 21 --- G 4 Ohms 34.40 27.40 0.353 2019-06-17 2019-06-17
LAVOCE WAF082.00-8 1 21 --- M 8 Ohms 78.00 12.00 0.359 2019-06-17 2019-06-17
ATOHM LD230CRA08 1 21 --- G 8 Ohms 34.70 25.00 0.285 2019-06-17 2019-06-17
JBL M110-8 1 25 --- BM 8 Ohms 57.00 60.00 0.308 2019-06-17 2019-06-17
ATOHM LD230CRA08M 1 21 --- G 8 Ohms 24.00 23.40 0.341 2019-06-17 2019-06-17
AUDIOPOLE 324 6 12 --- M 4 Ohms 104.64 3.56 0.227 2019-06-17 2019-06-17
LAVOCE FSN021.00 1 6 LB M 8 Ohms 220.00 0.20 0.587 2019-06-15 2019-06-15
LAVOCE FSF030.70 1 8 LB BM 8 Ohms 114.00 1.40 0.717 2019-06-13 2019-06-13
LAVOCE FSN030.71 1 8 LB M 8 Ohms 130.00 1.20 0.565 2019-06-13 2019-06-13
LAVOCE FSN030.72 1 8 LB M 8 Ohms 125.00 1.10 0.320 2019-06-13 2019-06-13
LAVOCE WAF102.52-8 1 25 --- BM 8 Ohms 66.00 23.50 0.412 2019-06-11 2019-06-11
LAVOCE WAF123.03-8 1 31 --- BM 8 Ohms 50.00 70.00 0.287 2019-06-11 2019-06-11
LAVOCE WSF041.00 1 10 --- M 8 Ohms 91.00 2.50 0.435 2019-06-11 2019-06-11
PEERLESS SLS 830945 vp 6 14 --- BM 4 Ohms 51.49 5.87 0.363 2019-06-11 2019-06-11
PEERLESS TC8FD05-04 1 8 LB BM 4 Ohms 146.80 0.87 0.776 2019-06-09 2019-06-09
FOCAL 6W ULTIMA 2 17 CAR G 4 Ohms 62.00 13.50 0.705 2019-06-07 2019-06-07
FAITAL PRO 15XL1200 1 38 --- G 8 Ohms 40.00 75.89 0.395 2019-06-06 2019-06-06
CELESTION TF1225CX 1 31 COAX BM 8 Ohms 63.50 45.12 0.358 2019-06-06 2019-06-06
PEERLESS SDS-135F25CP02-04 1 14 --- BM 4 Ohms 57.70 3.91 0.403 2019-06-06 2019-06-06
TANG BAND W3-871SC 1 8 LB BM 8 Ohms 110.00 1.65 0.587 2019-06-03 2019-06-03
MONACOR SPH-5M 5 14 --- G 8 Ohms 51.00 11.30 0.407 2012-09-28 2019-06-03
DAYTON DC130B4 1 14 --- BM 4 Ohms 51.80 12.30 0.353 2019-06-03 2019-06-03
MONACOR SPH-5M v2019 5 14 --- G 8 Ohms 45.00 13.47 0.404 2019-06-03 2019-06-03
FOCAL ES 130 KR 2 14 CAR G 4 Ohms 78.00 4.30 0.831 2019-06-02 2019-06-02
DAYTON DC160-8 5 17 --- G 8 Ohms 34.30 24.50 0.326 2014-02-02 2019-06-01
DAYTON DC160-8 v2019 5 17 --- G 8 Ohms 35.70 17.90 0.342 2019-06-01 2019-06-01
JBL GTO 1264 3 31 CAR G 4 Ohms 26.72 83.06 0.428 2019-06-01 2019-06-01
FAITAL PRO 15FH500 16 Ohms 1 38 --- G 16 Ohms 35.00 196.80 0.454 2019-05-30 2019-05-30
HINOR 12 CARBONO 700 2 31 CAR SUB 4 Ohms 29.24 116.60 0.619 2019-05-29 2019-05-29
HINOR 8 CARBONO 300 2 21 CAR G 4 Ohms 34.90 23.51 0.441 2019-05-29 2019-05-29
STX M.15.250.8.FCX 1 14 --- BM 8 Ohms 68.00 9.50 0.390 2019-05-27 2019-05-27
B et C 5 MDN 38-8 1 14 --- M 8 Ohms 240.00 0.60 0.447 2019-05-27 2019-05-27
STX W.27.500.8.FCX 1 25 --- G 8 Ohms 25.00 59.00 0.352 2019-05-27 2019-05-27
FOCAL RCX-130 2 12 CAR G 4 Ohms 90.00 2.50 0.821 2019-05-26 2019-05-26
B et C 15 PE 40 1 38 --- BM 8 Ohms 44.00 205.00 0.270 2019-05-21 2019-05-26
MC CAULEY B1840 3 46 --- G 8 Ohms 28.00 405.00 0.231 2019-05-23 2019-05-23
DYNAUDIO 15W75 vp B 6 14 --- G 8 Ohms 75.67 4.26 0.626 2019-05-21 2019-05-21
DYNAUDIO 15W75 vp C 6 14 --- G 8 Ohms 75.33 4.30 0.601 2019-05-21 2019-05-21
DYNAUDIO 15W75 vp D 6 14 --- G 8 Ohms 76.33 4.08 0.600 2019-05-21 2019-05-21
DYNAUDIO 15W75 vp moyenne de 4 6 14 --- G 8 Ohms 75.75 4.21 0.612 2019-05-21 2019-05-21
DYNAUDIO 15W75 vp A 6 14 --- G 8 Ohms 75.67 4.18 0.606 2019-05-21 2019-05-21
SPHYNX SP-W12-PRO-2 1 31 --- G 8 Ohms 33.00 284.00 0.574 2019-05-20 2019-05-20
DAYTON TCP 115 1 10 --- BM 2 Ohms 62.28 2.38 0.376 2019-05-20 2019-05-20
FAITAL PRO 12XL1200 1 31 --- G 8 Ohms 50.00 20.80 0.418 2019-05-16 2019-05-16
CSS SDX12 DVC 3 31 --- G 4 Ohms 21.30 67.50 0.375 2013-05-14 2019-05-16
FOCAL P25FS 2 25 CAR SUB 8 Ohms 30.00 25.00 0.784 2019-05-16 2019-05-16
FOCAL 10WM 2 25 CAR SUB 8 Ohms 31.00 28.00 0.683 2019-05-16 2019-05-16


Sélection pour voir les Paramètres THIELE et SMALL et les Domaines d'utilisation du HP

Notez que le séparateur décimal est le point, et non pas la virgule, dans toute la base de données.
Si vous devez rentrer 0.65 Ohms dans la case résistance du filtre passif, vous entrez : zéro, point, six, cinq.'

Sélectionnez le HP souhaité en cliquant dans le rond devant le numéro du haut-parleur.


Température en °C (de 0 à 50°C) :
Altitude en m (de -300 à +4000 m) :
% Humidité relative en % (de 0 à 100%) :
Facteur d'amortissement de l'ampli (Infini si >=400) :
Résistance du filtre passif :
Nombre, montage et branchement :
Type de l'enceinte :
Données T&S :
Cas d'emploi :
Variantes de l'enceinte Bass-reflex :


navigation_bdhp.jpg


Valid HTML 4.01 Transitional

Merci pour votre visite.


Dôme acoustique : La conception des enceintes acoustiques.


Il y a un savoir vivre élémentaire qui consiste à demander l'autorisation avant de reprendre tout ou partie de ce qui est écrit dans ce chapitre.
Ne pas respecter ce droit élémentaire vous expose à des poursuites sous toutes les formes.